sensor_id;sensor_type;location;lat;lon;timestamp;P1;durP1;ratioP1;P2;durP2;ratioP2
11046;SDS011;5576;50.008;10.596;2023-07-30T00:01:32;4.20;;;2.80;;
11046;SDS011;5576;50.008;10.596;2023-07-30T00:03:58;4.93;;;3.00;;
11046;SDS011;5576;50.008;10.596;2023-07-30T00:06:24;3.00;;;2.70;;
11046;SDS011;5576;50.008;10.596;2023-07-30T00:08:50;3.57;;;2.50;;
11046;SDS011;5576;50.008;10.596;2023-07-30T00:11:16;4.22;;;2.35;;
11046;SDS011;5576;50.008;10.596;2023-07-30T00:13:41;4.20;;;2.90;;
11046;SDS011;5576;50.008;10.596;2023-07-30T00:16:07;4.68;;;2.90;;
11046;SDS011;5576;50.008;10.596;2023-07-30T00:18:33;3.08;;;2.78;;
11046;SDS011;5576;50.008;10.596;2023-07-30T00:20:59;5.13;;;3.00;;
11046;SDS011;5576;50.008;10.596;2023-07-30T00:23:25;5.87;;;3.20;;
11046;SDS011;5576;50.008;10.596;2023-07-30T00:25:50;3.83;;;2.60;;
11046;SDS011;5576;50.008;10.596;2023-07-30T00:28:16;3.73;;;2.50;;
11046;SDS011;5576;50.008;10.596;2023-07-30T00:30:42;3.97;;;3.40;;
11046;SDS011;5576;50.008;10.596;2023-07-30T00:33:07;4.33;;;2.40;;
11046;SDS011;5576;50.008;10.596;2023-07-30T00:35:33;3.05;;;2.50;;
11046;SDS011;5576;50.008;10.596;2023-07-30T00:37:59;2.42;;;2.22;;
11046;SDS011;5576;50.008;10.596;2023-07-30T00:40:25;2.40;;;2.20;;
11046;SDS011;5576;50.008;10.596;2023-07-30T00:42:50;2.83;;;2.30;;
11046;SDS011;5576;50.008;10.596;2023-07-30T00:45:16;5.20;;;2.10;;
11046;SDS011;5576;50.008;10.596;2023-07-30T00:47:43;2.85;;;2.30;;
11046;SDS011;5576;50.008;10.596;2023-07-30T00:50:09;2.63;;;2.20;;
11046;SDS011;5576;50.008;10.596;2023-07-30T00:52:38;2.80;;;2.60;;
11046;SDS011;5576;50.008;10.596;2023-07-30T00:55:04;2.60;;;2.40;;
11046;SDS011;5576;50.008;10.596;2023-07-30T00:57:31;3.53;;;2.20;;
11046;SDS011;5576;50.008;10.596;2023-07-30T00:59:58;2.63;;;2.30;;
11046;SDS011;5576;50.008;10.596;2023-07-30T01:02:24;3.22;;;2.40;;
11046;SDS011;5576;50.008;10.596;2023-07-30T01:04:51;3.60;;;2.50;;
11046;SDS011;5576;50.008;10.596;2023-07-30T01:07:18;2.38;;;2.17;;
11046;SDS011;5576;50.008;10.596;2023-07-30T01:09:44;3.05;;;2.25;;
11046;SDS011;5576;50.008;10.596;2023-07-30T01:12:09;2.50;;;2.10;;
11046;SDS011;5576;50.008;10.596;2023-07-30T01:14:36;2.60;;;2.00;;
11046;SDS011;5576;50.008;10.596;2023-07-30T01:17:03;3.50;;;2.20;;
11046;SDS011;5576;50.008;10.596;2023-07-30T01:19:29;2.75;;;2.13;;
11046;SDS011;5576;50.008;10.596;2023-07-30T01:21:55;3.40;;;2.33;;
11046;SDS011;5576;50.008;10.596;2023-07-30T01:24:21;2.50;;;2.30;;
11046;SDS011;5576;50.008;10.596;2023-07-30T01:26:49;2.67;;;2.20;;
11046;SDS011;5576;50.008;10.596;2023-07-30T01:29:22;2.67;;;2.20;;
11046;SDS011;5576;50.008;10.596;2023-07-30T01:32:06;3.70;;;2.22;;
11046;SDS011;5576;50.008;10.596;2023-07-30T01:34:35;2.63;;;2.40;;
11046;SDS011;5576;50.008;10.596;2023-07-30T01:37:04;3.15;;;2.33;;
11046;SDS011;5576;50.008;10.596;2023-07-30T01:39:33;2.35;;;2.15;;
11046;SDS011;5576;50.008;10.596;2023-07-30T01:42:03;2.55;;;2.30;;
11046;SDS011;5576;50.008;10.596;2023-07-30T01:44:29;2.80;;;2.30;;
11046;SDS011;5576;50.008;10.596;2023-07-30T01:46:55;2.65;;;2.45;;
11046;SDS011;5576;50.008;10.596;2023-07-30T01:49:20;3.40;;;2.20;;
11046;SDS011;5576;50.008;10.596;2023-07-30T01:51:46;3.65;;;2.33;;
11046;SDS011;5576;50.008;10.596;2023-07-30T01:54:12;3.47;;;2.00;;
11046;SDS011;5576;50.008;10.596;2023-07-30T01:56:38;2.53;;;2.17;;
11046;SDS011;5576;50.008;10.596;2023-07-30T01:59:04;2.92;;;2.40;;
11046;SDS011;5576;50.008;10.596;2023-07-30T02:01:30;4.07;;;2.30;;
11046;SDS011;5576;50.008;10.596;2023-07-30T02:03:55;2.30;;;2.10;;
11046;SDS011;5576;50.008;10.596;2023-07-30T02:06:21;3.07;;;2.50;;
11046;SDS011;5576;50.008;10.596;2023-07-30T02:08:48;3.13;;;2.40;;
11046;SDS011;5576;50.008;10.596;2023-07-30T02:11:13;2.78;;;2.40;;
11046;SDS011;5576;50.008;10.596;2023-07-30T02:13:39;2.72;;;2.50;;
11046;SDS011;5576;50.008;10.596;2023-07-30T02:16:05;2.70;;;2.40;;
11046;SDS011;5576;50.008;10.596;2023-07-30T02:18:30;3.22;;;2.40;;
11046;SDS011;5576;50.008;10.596;2023-07-30T02:20:56;3.20;;;2.43;;
11046;SDS011;5576;50.008;10.596;2023-07-30T02:23:22;2.85;;;2.20;;
11046;SDS011;5576;50.008;10.596;2023-07-30T02:25:47;2.83;;;2.37;;
11046;SDS011;5576;50.008;10.596;2023-07-30T02:28:13;3.60;;;2.10;;
11046;SDS011;5576;50.008;10.596;2023-07-30T02:30:39;2.60;;;2.40;;
11046;SDS011;5576;50.008;10.596;2023-07-30T02:33:05;2.53;;;2.20;;
11046;SDS011;5576;50.008;10.596;2023-07-30T02:35:30;3.10;;;2.30;;
11046;SDS011;5576;50.008;10.596;2023-07-30T02:37:57;2.50;;;2.30;;
11046;SDS011;5576;50.008;10.596;2023-07-30T02:40:23;2.50;;;2.10;;
11046;SDS011;5576;50.008;10.596;2023-07-30T02:42:48;2.10;;;1.90;;
11046;SDS011;5576;50.008;10.596;2023-07-30T02:45:14;1.77;;;1.60;;
11046;SDS011;5576;50.008;10.596;2023-07-30T02:47:40;1.90;;;1.70;;
11046;SDS011;5576;50.008;10.596;2023-07-30T02:50:06;1.95;;;1.60;;
11046;SDS011;5576;50.008;10.596;2023-07-30T02:52:33;2.63;;;1.75;;
11046;SDS011;5576;50.008;10.596;2023-07-30T02:54:59;2.33;;;1.60;;
11046;SDS011;5576;50.008;10.596;2023-07-30T02:57:24;2.33;;;1.70;;
11046;SDS011;5576;50.008;10.596;2023-07-30T02:59:50;1.70;;;1.60;;
11046;SDS011;5576;50.008;10.596;2023-07-30T03:02:16;1.90;;;1.60;;
11046;SDS011;5576;50.008;10.596;2023-07-30T03:04:42;1.93;;;1.73;;
11046;SDS011;5576;50.008;10.596;2023-07-30T03:07:09;1.60;;;1.50;;
11046;SDS011;5576;50.008;10.596;2023-07-30T03:09:34;1.90;;;1.37;;
11046;SDS011;5576;50.008;10.596;2023-07-30T03:12:00;1.60;;;1.48;;
11046;SDS011;5576;50.008;10.596;2023-07-30T03:14:26;1.52;;;1.42;;
11046;SDS011;5576;50.008;10.596;2023-07-30T03:16:52;1.92;;;1.30;;
11046;SDS011;5576;50.008;10.596;2023-07-30T03:19:17;1.80;;;1.40;;
11046;SDS011;5576;50.008;10.596;2023-07-30T03:21:43;1.40;;;1.30;;
11046;SDS011;5576;50.008;10.596;2023-07-30T03:24:09;1.60;;;1.33;;
11046;SDS011;5576;50.008;10.596;2023-07-30T03:26:35;1.90;;;1.30;;
11046;SDS011;5576;50.008;10.596;2023-07-30T03:29:00;1.50;;;1.40;;
11046;SDS011;5576;50.008;10.596;2023-07-30T03:31:26;1.57;;;1.30;;
11046;SDS011;5576;50.008;10.596;2023-07-30T03:33:53;2.05;;;1.60;;
11046;SDS011;5576;50.008;10.596;2023-07-30T03:36:20;2.00;;;1.60;;
11046;SDS011;5576;50.008;10.596;2023-07-30T03:38:45;1.40;;;1.30;;
11046;SDS011;5576;50.008;10.596;2023-07-30T03:41:12;1.67;;;1.58;;
11046;SDS011;5576;50.008;10.596;2023-07-30T03:43:38;1.50;;;1.40;;
11046;SDS011;5576;50.008;10.596;2023-07-30T03:46:04;1.98;;;1.60;;
11046;SDS011;5576;50.008;10.596;2023-07-30T03:48:29;1.67;;;1.50;;
11046;SDS011;5576;50.008;10.596;2023-07-30T03:50:55;1.90;;;1.70;;
11046;SDS011;5576;50.008;10.596;2023-07-30T03:53:22;2.05;;;1.65;;
11046;SDS011;5576;50.008;10.596;2023-07-30T03:55:48;2.60;;;1.85;;
11046;SDS011;5576;50.008;10.596;2023-07-30T03:58:13;1.60;;;1.47;;
11046;SDS011;5576;50.008;10.596;2023-07-30T04:00:39;1.95;;;1.75;;
11046;SDS011;5576;50.008;10.596;2023-07-30T04:03:05;2.10;;;1.80;;
11046;SDS011;5576;50.008;10.596;2023-07-30T04:05:31;1.97;;;1.63;;
11046;SDS011;5576;50.008;10.596;2023-07-30T04:07:58;2.20;;;1.88;;
11046;SDS011;5576;50.008;10.596;2023-07-30T04:10:24;2.55;;;1.80;;
11046;SDS011;5576;50.008;10.596;2023-07-30T04:12:50;2.20;;;2.00;;
11046;SDS011;5576;50.008;10.596;2023-07-30T04:15:16;3.08;;;1.92;;
11046;SDS011;5576;50.008;10.596;2023-07-30T04:17:42;1.98;;;1.77;;
11046;SDS011;5576;50.008;10.596;2023-07-30T04:20:08;2.55;;;2.00;;
11046;SDS011;5576;50.008;10.596;2023-07-30T04:22:36;2.25;;;2.00;;
11046;SDS011;5576;50.008;10.596;2023-07-30T04:25:02;2.05;;;1.83;;
11046;SDS011;5576;50.008;10.596;2023-07-30T04:27:29;2.17;;;1.90;;
11046;SDS011;5576;50.008;10.596;2023-07-30T04:29:54;2.25;;;1.90;;
11046;SDS011;5576;50.008;10.596;2023-07-30T04:32:20;2.40;;;2.08;;
11046;SDS011;5576;50.008;10.596;2023-07-30T04:34:46;3.07;;;2.10;;
11046;SDS011;5576;50.008;10.596;2023-07-30T04:37:12;2.33;;;1.98;;
11046;SDS011;5576;50.008;10.596;2023-07-30T04:39:38;2.30;;;2.05;;
11046;SDS011;5576;50.008;10.596;2023-07-30T04:42:04;2.55;;;2.30;;
11046;SDS011;5576;50.008;10.596;2023-07-30T04:44:30;3.10;;;2.10;;
11046;SDS011;5576;50.008;10.596;2023-07-30T04:47:03;2.13;;;1.88;;
11046;SDS011;5576;50.008;10.596;2023-07-30T04:49:29;2.40;;;2.20;;
11046;SDS011;5576;50.008;10.596;2023-07-30T04:51:54;3.05;;;2.03;;
11046;SDS011;5576;50.008;10.596;2023-07-30T04:54:20;2.30;;;2.10;;
11046;SDS011;5576;50.008;10.596;2023-07-30T04:56:46;2.33;;;2.13;;
11046;SDS011;5576;50.008;10.596;2023-07-30T04:59:12;2.93;;;2.07;;
11046;SDS011;5576;50.008;10.596;2023-07-30T05:01:37;2.17;;;1.97;;
11046;SDS011;5576;50.008;10.596;2023-07-30T05:04:03;2.20;;;2.00;;
11046;SDS011;5576;50.008;10.596;2023-07-30T05:06:29;2.00;;;1.90;;
11046;SDS011;5576;50.008;10.596;2023-07-30T05:08:55;3.05;;;2.22;;
11046;SDS011;5576;50.008;10.596;2023-07-30T05:11:20;2.77;;;2.00;;
11046;SDS011;5576;50.008;10.596;2023-07-30T05:13:46;2.20;;;1.90;;
11046;SDS011;5576;50.008;10.596;2023-07-30T05:16:12;2.00;;;1.80;;
11046;SDS011;5576;50.008;10.596;2023-07-30T05:18:37;2.03;;;1.80;;
11046;SDS011;5576;50.008;10.596;2023-07-30T05:21:03;2.67;;;2.10;;
11046;SDS011;5576;50.008;10.596;2023-07-30T05:23:29;2.20;;;2.00;;
11046;SDS011;5576;50.008;10.596;2023-07-30T05:25:55;2.50;;;2.03;;
11046;SDS011;5576;50.008;10.596;2023-07-30T05:28:20;2.67;;;2.17;;
11046;SDS011;5576;50.008;10.596;2023-07-30T05:30:46;3.30;;;1.90;;
11046;SDS011;5576;50.008;10.596;2023-07-30T05:33:12;2.20;;;2.00;;
11046;SDS011;5576;50.008;10.596;2023-07-30T05:35:37;3.00;;;2.20;;
11046;SDS011;5576;50.008;10.596;2023-07-30T05:38:03;2.53;;;1.93;;
11046;SDS011;5576;50.008;10.596;2023-07-30T05:40:29;2.10;;;1.90;;
11046;SDS011;5576;50.008;10.596;2023-07-30T05:42:54;3.70;;;2.03;;
11046;SDS011;5576;50.008;10.596;2023-07-30T05:45:20;2.20;;;2.00;;
11046;SDS011;5576;50.008;10.596;2023-07-30T05:47:46;2.20;;;2.00;;
11046;SDS011;5576;50.008;10.596;2023-07-30T05:50:12;3.10;;;2.10;;
11046;SDS011;5576;50.008;10.596;2023-07-30T05:52:37;2.50;;;2.30;;
11046;SDS011;5576;50.008;10.596;2023-07-30T05:55:03;2.10;;;1.87;;
11046;SDS011;5576;50.008;10.596;2023-07-30T05:57:29;2.40;;;2.20;;
11046;SDS011;5576;50.008;10.596;2023-07-30T05:59:55;2.50;;;2.30;;
11046;SDS011;5576;50.008;10.596;2023-07-30T06:02:21;2.33;;;2.10;;
11046;SDS011;5576;50.008;10.596;2023-07-30T06:04:46;2.77;;;2.30;;
11046;SDS011;5576;50.008;10.596;2023-07-30T06:07:13;2.50;;;2.30;;
11046;SDS011;5576;50.008;10.596;2023-07-30T06:09:39;2.67;;;2.13;;
11046;SDS011;5576;50.008;10.596;2023-07-30T06:12:05;3.45;;;2.30;;
11046;SDS011;5576;50.008;10.596;2023-07-30T06:14:31;2.67;;;2.27;;
11046;SDS011;5576;50.008;10.596;2023-07-30T06:16:56;2.67;;;2.20;;
11046;SDS011;5576;50.008;10.596;2023-07-30T06:19:22;2.60;;;2.40;;
11046;SDS011;5576;50.008;10.596;2023-07-30T06:21:48;2.40;;;2.00;;
11046;SDS011;5576;50.008;10.596;2023-07-30T06:24:14;2.40;;;2.20;;
11046;SDS011;5576;50.008;10.596;2023-07-30T06:26:39;2.43;;;2.23;;
11046;SDS011;5576;50.008;10.596;2023-07-30T06:29:05;2.40;;;2.20;;
11046;SDS011;5576;50.008;10.596;2023-07-30T06:31:31;2.30;;;2.00;;
11046;SDS011;5576;50.008;10.596;2023-07-30T06:33:57;2.40;;;2.20;;
11046;SDS011;5576;50.008;10.596;2023-07-30T06:36:22;2.38;;;2.17;;
11046;SDS011;5576;50.008;10.596;2023-07-30T06:38:48;2.40;;;2.20;;
11046;SDS011;5576;50.008;10.596;2023-07-30T06:41:14;3.13;;;2.20;;
11046;SDS011;5576;50.008;10.596;2023-07-30T06:43:39;2.40;;;2.20;;
11046;SDS011;5576;50.008;10.596;2023-07-30T06:46:05;2.13;;;1.90;;
11046;SDS011;5576;50.008;10.596;2023-07-30T06:48:31;2.20;;;2.00;;
11046;SDS011;5576;50.008;10.596;2023-07-30T06:50:57;3.13;;;2.20;;
11046;SDS011;5576;50.008;10.596;2023-07-30T06:53:22;2.92;;;2.20;;
11046;SDS011;5576;50.008;10.596;2023-07-30T06:55:48;2.35;;;2.15;;
11046;SDS011;5576;50.008;10.596;2023-07-30T06:58:14;2.93;;;2.27;;
11046;SDS011;5576;50.008;10.596;2023-07-30T07:00:40;2.33;;;2.13;;
11046;SDS011;5576;50.008;10.596;2023-07-30T07:03:05;3.00;;;2.00;;
11046;SDS011;5576;50.008;10.596;2023-07-30T07:05:31;2.20;;;2.00;;
11046;SDS011;5576;50.008;10.596;2023-07-30T07:07:57;1.92;;;1.75;;
11046;SDS011;5576;50.008;10.596;2023-07-30T07:10:22;2.60;;;2.00;;
11046;SDS011;5576;50.008;10.596;2023-07-30T07:12:48;2.58;;;2.00;;
11046;SDS011;5576;50.008;10.596;2023-07-30T07:15:15;2.45;;;1.85;;
11046;SDS011;5576;50.008;10.596;2023-07-30T07:17:40;1.83;;;1.70;;
11046;SDS011;5576;50.008;10.596;2023-07-30T07:20:06;2.10;;;1.75;;
11046;SDS011;5576;50.008;10.596;2023-07-30T07:22:33;2.20;;;1.73;;
11046;SDS011;5576;50.008;10.596;2023-07-30T07:24:59;2.40;;;2.20;;
11046;SDS011;5576;50.008;10.596;2023-07-30T07:27:25;2.03;;;1.60;;
11046;SDS011;5576;50.008;10.596;2023-07-30T07:29:51;2.40;;;1.77;;
11046;SDS011;5576;50.008;10.596;2023-07-30T07:32:17;2.55;;;1.80;;
11046;SDS011;5576;50.008;10.596;2023-07-30T07:34:50;2.05;;;1.85;;
11046;SDS011;5576;50.008;10.596;2023-07-30T07:37:16;2.00;;;1.65;;
11046;SDS011;5576;50.008;10.596;2023-07-30T07:39:44;1.73;;;1.63;;
11046;SDS011;5576;50.008;10.596;2023-07-30T07:42:10;1.40;;;1.30;;
11046;SDS011;5576;50.008;10.596;2023-07-30T07:44:36;1.80;;;1.60;;
11046;SDS011;5576;50.008;10.596;2023-07-30T07:47:02;2.00;;;1.70;;
11046;SDS011;5576;50.008;10.596;2023-07-30T07:49:28;2.70;;;1.60;;
11046;SDS011;5576;50.008;10.596;2023-07-30T07:51:54;1.67;;;1.40;;
11046;SDS011;5576;50.008;10.596;2023-07-30T07:54:20;1.48;;;1.38;;
11046;SDS011;5576;50.008;10.596;2023-07-30T07:56:46;1.60;;;1.50;;
11046;SDS011;5576;50.008;10.596;2023-07-30T07:59:11;1.50;;;1.38;;
11046;SDS011;5576;50.008;10.596;2023-07-30T08:01:37;1.60;;;1.40;;
11046;SDS011;5576;50.008;10.596;2023-07-30T08:04:03;1.73;;;1.33;;
11046;SDS011;5576;50.008;10.596;2023-07-30T08:06:29;1.70;;;1.60;;
11046;SDS011;5576;50.008;10.596;2023-07-30T08:08:56;1.75;;;1.55;;
11046;SDS011;5576;50.008;10.596;2023-07-30T08:11:22;1.92;;;1.35;;
11046;SDS011;5576;50.008;10.596;2023-07-30T08:13:48;1.53;;;1.43;;
11046;SDS011;5576;50.008;10.596;2023-07-30T08:16:13;1.67;;;1.42;;
11046;SDS011;5576;50.008;10.596;2023-07-30T08:18:39;1.60;;;1.50;;
11046;SDS011;5576;50.008;10.596;2023-07-30T08:21:05;1.95;;;1.30;;
11046;SDS011;5576;50.008;10.596;2023-07-30T08:23:31;1.60;;;1.50;;
11046;SDS011;5576;50.008;10.596;2023-07-30T08:25:57;1.85;;;1.50;;
11046;SDS011;5576;50.008;10.596;2023-07-30T08:28:22;1.83;;;1.58;;
11046;SDS011;5576;50.008;10.596;2023-07-30T08:30:48;1.53;;;1.30;;
11046;SDS011;5576;50.008;10.596;2023-07-30T08:33:14;1.50;;;1.40;;
11046;SDS011;5576;50.008;10.596;2023-07-30T08:35:39;1.60;;;1.30;;
11046;SDS011;5576;50.008;10.596;2023-07-30T08:38:05;1.30;;;1.20;;
11046;SDS011;5576;50.008;10.596;2023-07-30T08:40:31;1.70;;;1.60;;
11046;SDS011;5576;50.008;10.596;2023-07-30T08:42:57;1.50;;;1.30;;
11046;SDS011;5576;50.008;10.596;2023-07-30T08:45:23;1.58;;;1.42;;
11046;SDS011;5576;50.008;10.596;2023-07-30T08:47:48;1.40;;;1.30;;
11046;SDS011;5576;50.008;10.596;2023-07-30T08:50:14;1.55;;;1.40;;
11046;SDS011;5576;50.008;10.596;2023-07-30T08:52:40;1.50;;;1.30;;
11046;SDS011;5576;50.008;10.596;2023-07-30T08:55:06;1.58;;;1.48;;
11046;SDS011;5576;50.008;10.596;2023-07-30T08:57:32;2.88;;;1.70;;
11046;SDS011;5576;50.008;10.596;2023-07-30T09:00:06;1.40;;;1.30;;
11046;SDS011;5576;50.008;10.596;2023-07-30T09:02:37;2.55;;;1.48;;
11046;SDS011;5576;50.008;10.596;2023-07-30T09:05:04;2.17;;;1.40;;
11046;SDS011;5576;50.008;10.596;2023-07-30T09:07:31;1.40;;;1.10;;
11046;SDS011;5576;50.008;10.596;2023-07-30T09:09:57;1.20;;;1.10;;
11046;SDS011;5576;50.008;10.596;2023-07-30T09:12:28;1.20;;;1.10;;
11046;SDS011;5576;50.008;10.596;2023-07-30T09:14:56;1.20;;;1.10;;
11046;SDS011;5576;50.008;10.596;2023-07-30T09:17:22;1.30;;;1.20;;
11046;SDS011;5576;50.008;10.596;2023-07-30T09:19:48;1.50;;;1.10;;
11046;SDS011;5576;50.008;10.596;2023-07-30T09:22:32;1.23;;;1.13;;
11046;SDS011;5576;50.008;10.596;2023-07-30T09:25:01;1.30;;;1.20;;
11046;SDS011;5576;50.008;10.596;2023-07-30T09:27:28;1.30;;;1.20;;
11046;SDS011;5576;50.008;10.596;2023-07-30T09:29:55;1.60;;;1.00;;
11046;SDS011;5576;50.008;10.596;2023-07-30T09:32:25;1.65;;;1.50;;
11046;SDS011;5576;50.008;10.596;2023-07-30T09:34:53;1.30;;;1.20;;
11046;SDS011;5576;50.008;10.596;2023-07-30T09:37:19;1.33;;;1.20;;
11046;SDS011;5576;50.008;10.596;2023-07-30T09:39:47;1.20;;;1.10;;
11046;SDS011;5576;50.008;10.596;2023-07-30T09:42:13;1.50;;;1.20;;
11046;SDS011;5576;50.008;10.596;2023-07-30T09:44:39;1.30;;;1.20;;
11046;SDS011;5576;50.008;10.596;2023-07-30T09:47:08;1.20;;;1.10;;
11046;SDS011;5576;50.008;10.596;2023-07-30T09:49:35;1.00;;;1.00;;
11046;SDS011;5576;50.008;10.596;2023-07-30T09:52:02;1.70;;;1.10;;
11046;SDS011;5576;50.008;10.596;2023-07-30T09:54:30;1.10;;;1.00;;
11046;SDS011;5576;50.008;10.596;2023-07-30T09:56:56;1.20;;;1.10;;
11046;SDS011;5576;50.008;10.596;2023-07-30T09:59:22;1.00;;;1.00;;
11046;SDS011;5576;50.008;10.596;2023-07-30T10:01:49;1.33;;;1.23;;
11046;SDS011;5576;50.008;10.596;2023-07-30T10:04:15;0.95;;;0.95;;
11046;SDS011;5576;50.008;10.596;2023-07-30T10:06:46;1.30;;;1.10;;
11046;SDS011;5576;50.008;10.596;2023-07-30T10:09:20;1.30;;;1.20;;
11046;SDS011;5576;50.008;10.596;2023-07-30T10:11:49;1.25;;;1.10;;
11046;SDS011;5576;50.008;10.596;2023-07-30T10:14:16;1.20;;;1.10;;
11046;SDS011;5576;50.008;10.596;2023-07-30T10:16:52;1.75;;;1.20;;
11046;SDS011;5576;50.008;10.596;2023-07-30T10:19:24;1.20;;;1.10;;
11046;SDS011;5576;50.008;10.596;2023-07-30T10:21:50;1.13;;;1.02;;
11046;SDS011;5576;50.008;10.596;2023-07-30T10:24:16;1.50;;;1.20;;
11046;SDS011;5576;50.008;10.596;2023-07-30T10:26:42;1.70;;;1.20;;
11046;SDS011;5576;50.008;10.596;2023-07-30T10:29:09;1.30;;;1.20;;
11046;SDS011;5576;50.008;10.596;2023-07-30T10:31:38;1.67;;;1.30;;
11046;SDS011;5576;50.008;10.596;2023-07-30T10:34:07;2.22;;;1.33;;
11046;SDS011;5576;50.008;10.596;2023-07-30T10:36:42;2.08;;;1.55;;
11046;SDS011;5576;50.008;10.596;2023-07-30T10:39:12;3.28;;;1.45;;
11046;SDS011;5576;50.008;10.596;2023-07-30T10:41:42;1.90;;;1.52;;
11046;SDS011;5576;50.008;10.596;2023-07-30T10:44:16;2.10;;;1.42;;
11046;SDS011;5576;50.008;10.596;2023-07-30T10:46:44;2.20;;;1.58;;
11046;SDS011;5576;50.008;10.596;2023-07-30T10:49:10;1.50;;;1.30;;
11046;SDS011;5576;50.008;10.596;2023-07-30T10:51:37;2.83;;;1.23;;
11046;SDS011;5576;50.008;10.596;2023-07-30T10:54:05;1.35;;;1.20;;
11046;SDS011;5576;50.008;10.596;2023-07-30T10:56:34;1.40;;;1.30;;
11046;SDS011;5576;50.008;10.596;2023-07-30T10:59:03;1.45;;;1.35;;
11046;SDS011;5576;50.008;10.596;2023-07-30T11:01:31;1.50;;;1.40;;
11046;SDS011;5576;50.008;10.596;2023-07-30T11:03:56;1.23;;;1.13;;
11046;SDS011;5576;50.008;10.596;2023-07-30T11:06:23;1.50;;;1.37;;
11046;SDS011;5576;50.008;10.596;2023-07-30T11:08:49;2.00;;;1.20;;
11046;SDS011;5576;50.008;10.596;2023-07-30T11:11:15;1.30;;;1.20;;
11046;SDS011;5576;50.008;10.596;2023-07-30T11:13:43;1.33;;;1.20;;
11046;SDS011;5576;50.008;10.596;2023-07-30T11:16:13;1.45;;;1.20;;
11046;SDS011;5576;50.008;10.596;2023-07-30T11:18:40;1.20;;;1.10;;
11046;SDS011;5576;50.008;10.596;2023-07-30T11:21:09;1.30;;;1.20;;
11046;SDS011;5576;50.008;10.596;2023-07-30T11:23:37;1.67;;;1.20;;
11046;SDS011;5576;50.008;10.596;2023-07-30T11:26:05;1.30;;;1.20;;
11046;SDS011;5576;50.008;10.596;2023-07-30T11:28:33;1.50;;;1.33;;
11046;SDS011;5576;50.008;10.596;2023-07-30T11:33:31;1.77;;;1.20;;
11046;SDS011;5576;50.008;10.596;2023-07-30T11:36:00;1.77;;;1.30;;
11046;SDS011;5576;50.008;10.596;2023-07-30T11:38:27;1.40;;;1.30;;
11046;SDS011;5576;50.008;10.596;2023-07-30T11:40:54;1.80;;;1.20;;
11046;SDS011;5576;50.008;10.596;2023-07-30T11:43:21;1.30;;;1.20;;
11046;SDS011;5576;50.008;10.596;2023-07-30T11:45:47;1.40;;;1.30;;
11046;SDS011;5576;50.008;10.596;2023-07-30T11:48:13;2.33;;;1.33;;
11046;SDS011;5576;50.008;10.596;2023-07-30T11:50:47;1.47;;;1.37;;
11046;SDS011;5576;50.008;10.596;2023-07-30T11:53:15;1.45;;;1.33;;
11046;SDS011;5576;50.008;10.596;2023-07-30T11:55:41;2.35;;;1.20;;
11046;SDS011;5576;50.008;10.596;2023-07-30T11:58:08;1.35;;;1.23;;
11046;SDS011;5576;50.008;10.596;2023-07-30T12:00:36;1.40;;;1.30;;
11046;SDS011;5576;50.008;10.596;2023-07-30T12:03:03;1.55;;;1.45;;
11046;SDS011;5576;50.008;10.596;2023-07-30T12:05:33;1.77;;;1.50;;
11046;SDS011;5576;50.008;10.596;2023-07-30T12:08:00;1.50;;;1.40;;
11046;SDS011;5576;50.008;10.596;2023-07-30T12:10:37;1.40;;;1.30;;
11046;SDS011;5576;50.008;10.596;2023-07-30T12:13:11;1.50;;;1.40;;
11046;SDS011;5576;50.008;10.596;2023-07-30T12:15:38;1.50;;;1.30;;
11046;SDS011;5576;50.008;10.596;2023-07-30T12:18:04;1.50;;;1.40;;
11046;SDS011;5576;50.008;10.596;2023-07-30T12:20:29;2.17;;;1.70;;
11046;SDS011;5576;50.008;10.596;2023-07-30T12:22:55;3.38;;;1.90;;
11046;SDS011;5576;50.008;10.596;2023-07-30T12:25:21;3.43;;;2.03;;
11046;SDS011;5576;50.008;10.596;2023-07-30T12:27:47;3.05;;;1.90;;
11046;SDS011;5576;50.008;10.596;2023-07-30T12:30:12;1.85;;;1.52;;
11046;SDS011;5576;50.008;10.596;2023-07-30T12:32:38;1.93;;;1.67;;
11046;SDS011;5576;50.008;10.596;2023-07-30T12:35:04;2.28;;;1.80;;
11046;SDS011;5576;50.008;10.596;2023-07-30T12:37:30;2.00;;;1.33;;
11046;SDS011;5576;50.008;10.596;2023-07-30T12:39:57;1.70;;;1.20;;
11046;SDS011;5576;50.008;10.596;2023-07-30T12:42:23;1.80;;;1.03;;
11046;SDS011;5576;50.008;10.596;2023-07-30T12:44:49;1.30;;;1.10;;
11046;SDS011;5576;50.008;10.596;2023-07-30T12:47:15;1.63;;;1.20;;
11046;SDS011;5576;50.008;10.596;2023-07-30T12:49:40;1.60;;;1.20;;
11046;SDS011;5576;50.008;10.596;2023-07-30T12:52:06;1.38;;;1.13;;
11046;SDS011;5576;50.008;10.596;2023-07-30T12:54:32;1.10;;;1.00;;
11046;SDS011;5576;50.008;10.596;2023-07-30T12:56:57;2.50;;;1.10;;
11046;SDS011;5576;50.008;10.596;2023-07-30T12:59:23;1.23;;;1.02;;
11046;SDS011;5576;50.008;10.596;2023-07-30T13:01:49;1.00;;;0.90;;
11046;SDS011;5576;50.008;10.596;2023-07-30T13:04:14;1.20;;;0.90;;
11046;SDS011;5576;50.008;10.596;2023-07-30T13:06:40;1.83;;;1.03;;
11046;SDS011;5576;50.008;10.596;2023-07-30T13:09:06;1.17;;;1.00;;
11046;SDS011;5576;50.008;10.596;2023-07-30T13:11:32;1.00;;;0.90;;
11046;SDS011;5576;50.008;10.596;2023-07-30T13:13:57;2.10;;;1.03;;
11046;SDS011;5576;50.008;10.596;2023-07-30T13:16:23;2.17;;;1.03;;
11046;SDS011;5576;50.008;10.596;2023-07-30T13:18:49;1.08;;;0.90;;
11046;SDS011;5576;50.008;10.596;2023-07-30T13:21:14;2.30;;;0.87;;
11046;SDS011;5576;50.008;10.596;2023-07-30T13:23:40;1.02;;;0.93;;
11046;SDS011;5576;50.008;10.596;2023-07-30T13:26:06;1.93;;;0.90;;
11046;SDS011;5576;50.008;10.596;2023-07-30T13:28:32;0.87;;;0.80;;
11046;SDS011;5576;50.008;10.596;2023-07-30T13:30:57;2.53;;;1.00;;
11046;SDS011;5576;50.008;10.596;2023-07-30T13:33:23;1.50;;;0.80;;
11046;SDS011;5576;50.008;10.596;2023-07-30T13:35:49;1.23;;;1.00;;
11046;SDS011;5576;50.008;10.596;2023-07-30T13:38:14;1.35;;;1.00;;
11046;SDS011;5576;50.008;10.596;2023-07-30T13:40:40;1.30;;;1.10;;
11046;SDS011;5576;50.008;10.596;2023-07-30T13:43:06;1.10;;;0.80;;
11046;SDS011;5576;50.008;10.596;2023-07-30T13:45:32;1.50;;;0.90;;
11046;SDS011;5576;50.008;10.596;2023-07-30T13:47:57;1.43;;;1.00;;
11046;SDS011;5576;50.008;10.596;2023-07-30T13:50:23;1.02;;;0.90;;
11046;SDS011;5576;50.008;10.596;2023-07-30T13:52:49;1.90;;;1.00;;
11046;SDS011;5576;50.008;10.596;2023-07-30T13:55:15;1.40;;;0.90;;
11046;SDS011;5576;50.008;10.596;2023-07-30T13:57:41;1.23;;;0.82;;
11046;SDS011;5576;50.008;10.596;2023-07-30T14:00:08;1.60;;;1.00;;
11046;SDS011;5576;50.008;10.596;2023-07-30T14:02:34;1.80;;;1.10;;
11046;SDS011;5576;50.008;10.596;2023-07-30T14:04:59;1.67;;;0.90;;
11046;SDS011;5576;50.008;10.596;2023-07-30T14:07:25;1.90;;;1.00;;
11046;SDS011;5576;50.008;10.596;2023-07-30T14:09:51;1.43;;;1.07;;
11046;SDS011;5576;50.008;10.596;2023-07-30T14:12:16;1.97;;;1.20;;
11046;SDS011;5576;50.008;10.596;2023-07-30T14:14:42;1.15;;;1.00;;
11046;SDS011;5576;50.008;10.596;2023-07-30T14:17:08;1.70;;;1.10;;
11046;SDS011;5576;50.008;10.596;2023-07-30T14:19:34;1.93;;;1.13;;
11046;SDS011;5576;50.008;10.596;2023-07-30T14:21:59;1.50;;;1.00;;
11046;SDS011;5576;50.008;10.596;2023-07-30T14:24:25;1.85;;;1.10;;
11046;SDS011;5576;50.008;10.596;2023-07-30T14:26:51;1.70;;;0.90;;
11046;SDS011;5576;50.008;10.596;2023-07-30T14:29:17;1.33;;;0.90;;
11046;SDS011;5576;50.008;10.596;2023-07-30T14:31:43;2.17;;;1.20;;
11046;SDS011;5576;50.008;10.596;2023-07-30T14:34:08;2.33;;;1.10;;
11046;SDS011;5576;50.008;10.596;2023-07-30T14:36:34;2.28;;;1.15;;
11046;SDS011;5576;50.008;10.596;2023-07-30T14:39:00;2.78;;;1.20;;
11046;SDS011;5576;50.008;10.596;2023-07-30T14:41:25;1.67;;;1.17;;
11046;SDS011;5576;50.008;10.596;2023-07-30T14:43:51;2.25;;;1.30;;
11046;SDS011;5576;50.008;10.596;2023-07-30T14:46:17;1.77;;;1.30;;